Terminal Aerodrome Forecast
Issued by NWS

Home | Current Version | Previous Version | Graphics & Text | Print | Product List | Glossary On
Versions: 1 2 3 4 5 6 7 8 9 10 11 12 13 14 15 16 17 18 19 20 21 22 23 24 25 26 27 28
000
FTUS45 KGGW 150500
TAFOLF
TAF
KOLF 150528Z 1506/1606 35011KT P6SM SCT140
     FM150900 30017KT P6SM SCT120
     FM151500 31019KT P6SM BKN060
     FM152100 34025G35KT P6SM -SHRA OVC040
     FM160200 34015KT P6SM OVC080=

USA.gov is the U.S. government's official web portal to all federal, state and local government web resources and services.